Terminal Aerodrome Forecast
Issued by NWS Grand Junction, CO

Home | Current Version | Previous Version | Text Only | Print | Product List | Glossary On
Versions: 1 2 3 4 5 6 7 8 9 10 11 12 13 14
000
FTUS45 KGJT 210521
TAFGJT
TAF
KGJT 210521Z 2106/2206 29016G23KT P6SM SCT090
     FM210800 30007KT P6SM FEW090 SCT120
     FM212200 27010KT P6SM FEW140 FEW250
     FM220200 13005KT P6SM FEW150 FEW250=

USA.gov is the U.S. government's official web portal to all federal, state and local government web resources and services.